createdAt,value
2022-10-11T00:00:14.908Z,83.79
2022-10-11T00:10:22.161Z,84.01
2022-10-11T00:20:29.132Z,84.16
2022-10-11T00:30:33.948Z,84.12
2022-10-11T00:40:37.619Z,84.31
2022-10-11T00:50:43.171Z,84.57
2022-10-11T01:00:49.761Z,84.66
2022-10-11T01:11:03.625Z,84.81
2022-10-11T01:21:20.709Z,84.85
2022-10-11T01:31:29.107Z,84.83
2022-10-11T01:41:44.180Z,85.12
2022-10-11T01:51:58.807Z,85.30
2022-10-11T02:02:14.568Z,85.69
2022-10-11T02:12:26.961Z,85.94
2022-10-11T02:22:35.520Z,85.91
2022-10-11T02:32:50.078Z,85.95
2022-10-11T02:43:04.991Z,85.93
2022-10-11T02:53:14.369Z,86.21
2022-10-11T03:03:20.769Z,86.40
2022-10-11T03:13:29.822Z,86.45
2022-10-11T03:23:37.619Z,86.74
2022-10-11T03:33:47.519Z,86.85
2022-10-11T03:43:59.712Z,86.64
2022-10-11T03:54:13.972Z,86.47
2022-10-11T04:04:24.790Z,85.45
2022-10-11T04:14:29.829Z,82.96
2022-10-11T04:24:35.587Z,83.13
2022-10-11T04:34:46.590Z,77.66
2022-10-11T04:44:57.932Z,74.72
2022-10-11T04:55:06.536Z,71.74
2022-10-11T05:05:14.387Z,70.13
2022-10-11T05:15:24.500Z,67.30
2022-10-11T05:25:46.137Z,67.39
2022-10-11T05:35:58.095Z,67.42
2022-10-11T05:46:07.916Z,66.56
2022-10-11T05:57:08.218Z,68.23
2022-10-11T06:07:19.929Z,64.81
2022-10-11T06:17:32.046Z,65.93
2022-10-11T06:27:42.649Z,65.42
2022-10-11T06:37:48.259Z,64.51
2022-10-11T06:48:03.355Z,64.71
2022-10-11T06:58:10.151Z,63.53
2022-10-11T07:08:15.813Z,64.91
2022-10-11T07:18:28.184Z,65.34
2022-10-11T07:28:44.019Z,64.64
2022-10-11T07:49:11.554Z,62.61
2022-10-11T07:59:18.743Z,62.39
2022-10-11T08:09:46.058Z,61.19
2022-10-11T08:20:02.656Z,60.63
2022-10-11T08:30:19.621Z,59.66
2022-10-11T08:40:41.763Z,59.19
2022-10-11T08:50:51.966Z,60.95
2022-10-11T09:00:59.684Z,57.93
2022-10-11T09:11:16.307Z,58.57
2022-10-11T09:21:31.754Z,58.36
2022-10-11T09:31:41.867Z,56.58
2022-10-11T09:41:54.188Z,57.37
2022-10-11T09:52:02.324Z,56.66
2022-10-11T10:02:21.018Z,56.68
2022-10-11T10:12:34.872Z,56.79
2022-10-11T10:22:44.540Z,56.21
2022-10-11T10:33:00.235Z,55.73
2022-10-11T10:43:05.884Z,54.60
2022-10-11T10:53:21.131Z,54.35
2022-10-11T11:03:33.305Z,53.33
2022-10-11T11:13:56.653Z,53.82
2022-10-11T11:24:13.908Z,55.28
2022-10-11T11:34:22.386Z,54.89
2022-10-11T11:44:30.389Z,54.72
2022-10-11T11:54:48.626Z,55.58
2022-10-11T12:04:54.655Z,55.24
2022-10-11T12:15:22.604Z,56.53
2022-10-11T12:25:36.427Z,56.49
2022-10-11T12:35:57.558Z,57.03
2022-10-11T12:46:44.613Z,57.44
2022-10-11T12:57:14.344Z,57.55
2022-10-11T13:07:24.400Z,57.07
2022-10-11T13:17:38.029Z,57.71
2022-10-11T13:27:53.227Z,57.96
2022-10-11T13:38:02.316Z,57.66
2022-10-11T13:48:10.672Z,58.51
2022-10-11T13:58:29.595Z,58.87
2022-10-11T14:08:40.483Z,58.67
2022-10-11T14:19:22.544Z,59.43
2022-10-11T14:29:28.732Z,59.44
2022-10-11T14:39:37.143Z,59.83
2022-10-11T14:49:46.580Z,60.68
2022-10-11T14:59:53.687Z,60.32
2022-10-11T15:09:57.557Z,57.79
2022-10-11T15:20:05.671Z,55.99
2022-10-11T15:30:18.568Z,55.79
2022-10-11T15:40:26.307Z,56.45
2022-10-11T15:50:44.658Z,55.60
2022-10-11T16:00:50.919Z,54.35
2022-10-11T16:10:57.740Z,53.29
2022-10-11T16:21:15.738Z,53.39
2022-10-11T16:31:21.032Z,52.91
2022-10-11T16:41:32.864Z,53.29
2022-10-11T16:51:44.816Z,53.11
2022-10-11T17:01:53.741Z,52.95
2022-10-11T17:11:56.802Z,53.00
2022-10-11T17:22:04.235Z,52.89
2022-10-11T17:32:07.438Z,53.38
2022-10-11T17:42:17.397Z,54.04
2022-10-11T17:52:26.153Z,54.40
2022-10-11T18:02:30.891Z,55.05
2022-10-11T18:12:33.829Z,55.63
2022-10-11T18:22:42.663Z,55.70
2022-10-11T18:32:48.335Z,56.48
2022-10-11T18:42:55.759Z,56.41
2022-10-11T18:53:02.326Z,56.68
2022-10-11T19:03:08.929Z,57.15
2022-10-11T19:13:12.051Z,57.52
2022-10-11T19:23:20.785Z,57.74
2022-10-11T19:33:24.178Z,58.38
2022-10-11T19:43:29.148Z,59.07
2022-10-11T19:53:35.830Z,59.08
2022-10-11T20:03:43.344Z,59.78
2022-10-11T20:13:50.443Z,60.50
2022-10-11T20:24:00.894Z,60.46
2022-10-11T20:34:07.593Z,61.30
2022-10-11T20:44:23.942Z,61.53
2022-10-11T20:54:29.121Z,61.80
2022-10-11T21:04:37.261Z,62.32
2022-10-11T21:14:41.074Z,62.96
2022-10-11T21:24:49.093Z,63.44
2022-10-11T21:34:55.044Z,65.36
2022-10-11T21:45:02.035Z,65.89
2022-10-11T21:55:18.065Z,66.88
2022-10-11T22:05:22.438Z,67.26
2022-10-11T22:15:28.389Z,67.74
2022-10-11T22:25:37.228Z,68.35
2022-10-11T22:35:40.183Z,70.11
2022-10-11T22:45:48.733Z,71.11
2022-10-11T22:56:04.793Z,72.03
2022-10-11T23:06:12.495Z,72.59
2022-10-11T23:16:17.856Z,73.35
2022-10-11T23:26:22.335Z,73.87
2022-10-11T23:36:36.374Z,74.24
2022-10-11T23:46:44.385Z,75.72
2022-10-11T23:56:54.237Z,77.61
